sensor_id;sensor_type;location;lat;lon;timestamp;temperature;humidity
10390;DHT22;5241;47.830;12.972;2023-10-08T00:00:45;15.30;99.90
10390;DHT22;5241;47.830;12.972;2023-10-08T00:03:21;15.20;99.90
10390;DHT22;5241;47.830;12.972;2023-10-08T00:05:47;15.40;99.90
10390;DHT22;5241;47.830;12.972;2023-10-08T00:08:14;15.50;99.90
10390;DHT22;5241;47.830;12.972;2023-10-08T00:10:42;15.30;99.90
10390;DHT22;5241;47.830;12.972;2023-10-08T00:13:09;15.30;99.90
10390;DHT22;5241;47.830;12.972;2023-10-08T00:15:41;15.30;99.90
10390;DHT22;5241;47.830;12.972;2023-10-08T00:18:20;15.30;99.90
10390;DHT22;5241;47.830;12.972;2023-10-08T00:20:47;15.30;99.90
10390;DHT22;5241;47.830;12.972;2023-10-08T00:23:31;15.30;99.90
10390;DHT22;5241;47.830;12.972;2023-10-08T00:26:00;15.20;99.90
10390;DHT22;5241;47.830;12.972;2023-10-08T00:28:32;15.30;99.90
10390;DHT22;5241;47.830;12.972;2023-10-08T00:30:58;15.30;99.90
10390;DHT22;5241;47.830;12.972;2023-10-08T00:33:31;15.40;99.90
10390;DHT22;5241;47.830;12.972;2023-10-08T00:35:56;15.30;99.90
10390;DHT22;5241;47.830;12.972;2023-10-08T00:38:22;15.40;99.90
10390;DHT22;5241;47.830;12.972;2023-10-08T00:40:49;15.30;99.90
10390;DHT22;5241;47.830;12.972;2023-10-08T00:43:34;15.30;99.90
10390;DHT22;5241;47.830;12.972;2023-10-08T00:46:03;15.30;99.90
10390;DHT22;5241;47.830;12.972;2023-10-08T00:48:30;15.30;99.90
10390;DHT22;5241;47.830;12.972;2023-10-08T00:51:02;15.30;99.90
10390;DHT22;5241;47.830;12.972;2023-10-08T00:54:00;15.30;99.90
10390;DHT22;5241;47.830;12.972;2023-10-08T00:56:33;15.20;99.90
10390;DHT22;5241;47.830;12.972;2023-10-08T00:59:17;15.20;99.90
10390;DHT22;5241;47.830;12.972;2023-10-08T01:01:47;15.20;99.90
10390;DHT22;5241;47.830;12.972;2023-10-08T01:04:30;15.10;99.90
10390;DHT22;5241;47.830;12.972;2023-10-08T01:07:01;15.10;99.90
10390;DHT22;5241;47.830;12.972;2023-10-08T01:09:35;15.20;99.90
10390;DHT22;5241;47.830;12.972;2023-10-08T01:12:16;15.20;99.90
10390;DHT22;5241;47.830;12.972;2023-10-08T01:15:00;15.20;99.90
10390;DHT22;5241;47.830;12.972;2023-10-08T01:17:52;15.10;99.90
10390;DHT22;5241;47.830;12.972;2023-10-08T01:20:34;15.10;99.90
10390;DHT22;5241;47.830;12.972;2023-10-08T01:23:07;15.00;99.90
10390;DHT22;5241;47.830;12.972;2023-10-08T01:25:39;15.00;99.90
10390;DHT22;5241;47.830;12.972;2023-10-08T01:28:06;15.00;99.90
10390;DHT22;5241;47.830;12.972;2023-10-08T01:30:43;15.00;99.90
10390;DHT22;5241;47.830;12.972;2023-10-08T01:33:13;15.10;99.90
10390;DHT22;5241;47.830;12.972;2023-10-08T01:35:41;15.00;99.90
10390;DHT22;5241;47.830;12.972;2023-10-08T01:38:07;14.90;99.90
10390;DHT22;5241;47.830;12.972;2023-10-08T01:40:34;15.00;99.90
10390;DHT22;5241;47.830;12.972;2023-10-08T01:42:59;15.00;99.90
10390;DHT22;5241;47.830;12.972;2023-10-08T01:45:26;15.00;99.90
10390;DHT22;5241;47.830;12.972;2023-10-08T01:47:52;15.00;99.90
10390;DHT22;5241;47.830;12.972;2023-10-08T01:50:22;15.10;99.90
10390;DHT22;5241;47.830;12.972;2023-10-08T01:52:50;15.00;99.90
10390;DHT22;5241;47.830;12.972;2023-10-08T01:55:19;14.90;99.90
10390;DHT22;5241;47.830;12.972;2023-10-08T01:57:46;14.90;99.90
10390;DHT22;5241;47.830;12.972;2023-10-08T02:00:12;14.80;99.90
10390;DHT22;5241;47.830;12.972;2023-10-08T02:02:39;14.90;99.90
10390;DHT22;5241;47.830;12.972;2023-10-08T02:05:06;15.00;99.90
10390;DHT22;5241;47.830;12.972;2023-10-08T02:07:32;14.90;99.90
10390;DHT22;5241;47.830;12.972;2023-10-08T02:09:59;14.90;99.90
10390;DHT22;5241;47.830;12.972;2023-10-08T02:12:25;14.80;99.90
10390;DHT22;5241;47.830;12.972;2023-10-08T02:14:50;14.80;99.90
10390;DHT22;5241;47.830;12.972;2023-10-08T02:17:16;14.90;99.90
10390;DHT22;5241;47.830;12.972;2023-10-08T02:19:42;14.80;99.90
10390;DHT22;5241;47.830;12.972;2023-10-08T02:22:08;14.90;99.90
10390;DHT22;5241;47.830;12.972;2023-10-08T02:24:37;14.80;99.90
10390;DHT22;5241;47.830;12.972;2023-10-08T02:27:03;14.80;99.90
10390;DHT22;5241;47.830;12.972;2023-10-08T02:29:30;14.80;99.90
10390;DHT22;5241;47.830;12.972;2023-10-08T02:31:56;14.90;99.90
10390;DHT22;5241;47.830;12.972;2023-10-08T02:34:22;14.90;99.90
10390;DHT22;5241;47.830;12.972;2023-10-08T02:36:48;14.80;99.90
10390;DHT22;5241;47.830;12.972;2023-10-08T02:39:14;14.90;99.90
10390;DHT22;5241;47.830;12.972;2023-10-08T02:41:48;14.90;99.90
10390;DHT22;5241;47.830;12.972;2023-10-08T02:44:14;15.00;99.90
10390;DHT22;5241;47.830;12.972;2023-10-08T02:46:44;15.00;99.90
10390;DHT22;5241;47.830;12.972;2023-10-08T02:49:16;14.90;99.90
10390;DHT22;5241;47.830;12.972;2023-10-08T02:51:55;14.90;99.90
10390;DHT22;5241;47.830;12.972;2023-10-08T02:54:22;14.90;99.90
10390;DHT22;5241;47.830;12.972;2023-10-08T02:56:57;14.90;99.90
10390;DHT22;5241;47.830;12.972;2023-10-08T02:59:29;14.90;99.90
10390;DHT22;5241;47.830;12.972;2023-10-08T03:02:05;14.80;99.90
10390;DHT22;5241;47.830;12.972;2023-10-08T03:04:42;14.80;99.90
10390;DHT22;5241;47.830;12.972;2023-10-08T03:07:13;14.80;99.90
10390;DHT22;5241;47.830;12.972;2023-10-08T03:09:50;14.90;99.90
10390;DHT22;5241;47.830;12.972;2023-10-08T03:12:17;14.90;99.90
10390;DHT22;5241;47.830;12.972;2023-10-08T03:14:43;14.90;99.90
10390;DHT22;5241;47.830;12.972;2023-10-08T03:17:29;15.00;99.90
10390;DHT22;5241;47.830;12.972;2023-10-08T03:19:56;15.00;99.90
10390;DHT22;5241;47.830;12.972;2023-10-08T03:22:44;14.90;99.90
10390;DHT22;5241;47.830;12.972;2023-10-08T03:25:12;14.90;99.90
10390;DHT22;5241;47.830;12.972;2023-10-08T03:27:44;15.00;99.90
10390;DHT22;5241;47.830;12.972;2023-10-08T03:30:10;14.90;99.90
10390;DHT22;5241;47.830;12.972;2023-10-08T03:32:40;14.90;99.90
10390;DHT22;5241;47.830;12.972;2023-10-08T03:35:08;15.00;99.90
10390;DHT22;5241;47.830;12.972;2023-10-08T03:37:38;14.90;99.90
10390;DHT22;5241;47.830;12.972;2023-10-08T03:40:11;14.90;99.90
10390;DHT22;5241;47.830;12.972;2023-10-08T03:43:07;14.80;99.90
10390;DHT22;5241;47.830;12.972;2023-10-08T03:45:41;14.90;99.90
10390;DHT22;5241;47.830;12.972;2023-10-08T03:48:19;14.90;99.90
10390;DHT22;5241;47.830;12.972;2023-10-08T03:50:48;14.90;99.90
10390;DHT22;5241;47.830;12.972;2023-10-08T03:53:22;14.80;99.90
10390;DHT22;5241;47.830;12.972;2023-10-08T03:55:48;14.80;99.90
10390;DHT22;5241;47.830;12.972;2023-10-08T03:58:17;14.90;99.90
10390;DHT22;5241;47.830;12.972;2023-10-08T04:00:54;14.80;99.90
10390;DHT22;5241;47.830;12.972;2023-10-08T04:03:34;14.80;99.90
10390;DHT22;5241;47.830;12.972;2023-10-08T04:06:21;14.80;99.90
10390;DHT22;5241;47.830;12.972;2023-10-08T04:09:17;14.70;99.90
10390;DHT22;5241;47.830;12.972;2023-10-08T04:11:45;14.70;99.90
10390;DHT22;5241;47.830;12.972;2023-10-08T04:14:24;14.70;99.90
10390;DHT22;5241;47.830;12.972;2023-10-08T04:16:51;14.60;99.90
10390;DHT22;5241;47.830;12.972;2023-10-08T04:19:21;14.80;99.90
10390;DHT22;5241;47.830;12.972;2023-10-08T04:21:55;14.80;99.90
10390;DHT22;5241;47.830;12.972;2023-10-08T04:24:25;14.90;99.90
10390;DHT22;5241;47.830;12.972;2023-10-08T04:26:55;14.80;99.90
10390;DHT22;5241;47.830;12.972;2023-10-08T04:29:25;14.80;99.90
10390;DHT22;5241;47.830;12.972;2023-10-08T04:31:51;14.80;99.90
10390;DHT22;5241;47.830;12.972;2023-10-08T04:34:27;14.70;99.90
10390;DHT22;5241;47.830;12.972;2023-10-08T04:36:53;14.70;99.90
10390;DHT22;5241;47.830;12.972;2023-10-08T04:39:30;14.80;99.90
10390;DHT22;5241;47.830;12.972;2023-10-08T04:42:02;14.70;99.90
10390;DHT22;5241;47.830;12.972;2023-10-08T04:44:37;14.60;99.90
10390;DHT22;5241;47.830;12.972;2023-10-08T04:47:05;14.60;99.90
10390;DHT22;5241;47.830;12.972;2023-10-08T04:49:32;14.60;99.90
10390;DHT22;5241;47.830;12.972;2023-10-08T04:52:06;14.70;99.90
10390;DHT22;5241;47.830;12.972;2023-10-08T04:54:41;14.80;99.90
10390;DHT22;5241;47.830;12.972;2023-10-08T04:57:12;14.70;99.90
10390;DHT22;5241;47.830;12.972;2023-10-08T04:59:41;14.70;99.90
10390;DHT22;5241;47.830;12.972;2023-10-08T05:02:07;14.80;99.90
10390;DHT22;5241;47.830;12.972;2023-10-08T05:04:49;14.70;99.90
10390;DHT22;5241;47.830;12.972;2023-10-08T05:07:18;14.80;99.90
10390;DHT22;5241;47.830;12.972;2023-10-08T05:10:06;14.80;99.90
10390;DHT22;5241;47.830;12.972;2023-10-08T05:12:31;14.80;99.90
10390;DHT22;5241;47.830;12.972;2023-10-08T05:15:06;14.70;99.90
10390;DHT22;5241;47.830;12.972;2023-10-08T05:17:45;14.80;99.90
10390;DHT22;5241;47.830;12.972;2023-10-08T05:20:21;14.70;99.90
10390;DHT22;5241;47.830;12.972;2023-10-08T05:23:10;14.70;99.90
10390;DHT22;5241;47.830;12.972;2023-10-08T05:25:56;14.60;99.90
10390;DHT22;5241;47.830;12.972;2023-10-08T05:28:45;14.70;99.90
10390;DHT22;5241;47.830;12.972;2023-10-08T05:31:28;14.60;99.90
10390;DHT22;5241;47.830;12.972;2023-10-08T05:34:12;14.60;99.90
10390;DHT22;5241;47.830;12.972;2023-10-08T05:36:44;14.60;99.90
10390;DHT22;5241;47.830;12.972;2023-10-08T05:39:24;14.60;99.90
10390;DHT22;5241;47.830;12.972;2023-10-08T05:41:53;14.60;99.90
10390;DHT22;5241;47.830;12.972;2023-10-08T05:44:39;14.60;99.90
10390;DHT22;5241;47.830;12.972;2023-10-08T05:47:06;14.60;99.90
10390;DHT22;5241;47.830;12.972;2023-10-08T05:49:51;14.60;99.90
10390;DHT22;5241;47.830;12.972;2023-10-08T05:52:40;14.50;99.90
10390;DHT22;5241;47.830;12.972;2023-10-08T05:55:24;14.60;99.90
10390;DHT22;5241;47.830;12.972;2023-10-08T05:58:01;14.60;99.90
10390;DHT22;5241;47.830;12.972;2023-10-08T06:00:50;14.60;99.90
10390;DHT22;5241;47.830;12.972;2023-10-08T06:03:20;14.70;99.90
10390;DHT22;5241;47.830;12.972;2023-10-08T06:06:02;14.60;99.90
10390;DHT22;5241;47.830;12.972;2023-10-08T06:08:37;14.60;99.90
10390;DHT22;5241;47.830;12.972;2023-10-08T06:11:34;14.70;99.90
10390;DHT22;5241;47.830;12.972;2023-10-08T06:14:31;14.90;99.90
10390;DHT22;5241;47.830;12.972;2023-10-08T06:17:15;14.90;99.90
10390;DHT22;5241;47.830;12.972;2023-10-08T06:20:03;14.90;99.90
10390;DHT22;5241;47.830;12.972;2023-10-08T06:22:42;14.80;99.90
10390;DHT22;5241;47.830;12.972;2023-10-08T06:25:08;14.80;99.90
10390;DHT22;5241;47.830;12.972;2023-10-08T06:27:43;14.70;99.90
10390;DHT22;5241;47.830;12.972;2023-10-08T06:30:12;14.80;99.90
10390;DHT22;5241;47.830;12.972;2023-10-08T06:32:43;14.80;99.90
10390;DHT22;5241;47.830;12.972;2023-10-08T06:35:10;14.90;99.90
10390;DHT22;5241;47.830;12.972;2023-10-08T06:37:43;14.90;99.90
10390;DHT22;5241;47.830;12.972;2023-10-08T06:40:11;14.80;99.90
10390;DHT22;5241;47.830;12.972;2023-10-08T06:42:56;14.80;99.90
10390;DHT22;5241;47.830;12.972;2023-10-08T06:45:22;14.80;99.90
10390;DHT22;5241;47.830;12.972;2023-10-08T06:47:48;14.90;99.90
10390;DHT22;5241;47.830;12.972;2023-10-08T06:50:15;15.00;99.90
10390;DHT22;5241;47.830;12.972;2023-10-08T06:52:41;15.10;99.90
10390;DHT22;5241;47.830;12.972;2023-10-08T06:55:09;15.00;99.90
10390;DHT22;5241;47.830;12.972;2023-10-08T06:57:37;15.00;99.90
10390;DHT22;5241;47.830;12.972;2023-10-08T07:00:05;15.10;99.90
10390;DHT22;5241;47.830;12.972;2023-10-08T07:02:46;15.20;99.90
10390;DHT22;5241;47.830;12.972;2023-10-08T07:05:13;15.30;99.90
10390;DHT22;5241;47.830;12.972;2023-10-08T07:07:38;15.30;99.90
10390;DHT22;5241;47.830;12.972;2023-10-08T07:10:05;15.40;99.90
10390;DHT22;5241;47.830;12.972;2023-10-08T07:12:36;15.60;99.90
10390;DHT22;5241;47.830;12.972;2023-10-08T07:15:01;15.80;99.90
10390;DHT22;5241;47.830;12.972;2023-10-08T07:17:30;15.80;99.90
10390;DHT22;5241;47.830;12.972;2023-10-08T07:20:06;15.90;99.90
10390;DHT22;5241;47.830;12.972;2023-10-08T07:22:39;15.90;99.90
10390;DHT22;5241;47.830;12.972;2023-10-08T07:25:09;15.80;99.90
10390;DHT22;5241;47.830;12.972;2023-10-08T07:27:34;15.80;99.90
10390;DHT22;5241;47.830;12.972;2023-10-08T07:30:03;15.80;99.90
10390;DHT22;5241;47.830;12.972;2023-10-08T07:32:38;15.70;99.90
10390;DHT22;5241;47.830;12.972;2023-10-08T07:35:07;15.80;99.90
10390;DHT22;5241;47.830;12.972;2023-10-08T07:37:50;15.90;99.90
10390;DHT22;5241;47.830;12.972;2023-10-08T07:40:16;16.10;99.90
10390;DHT22;5241;47.830;12.972;2023-10-08T07:42:42;16.10;99.90
10390;DHT22;5241;47.830;12.972;2023-10-08T07:45:09;16.30;99.90
10390;DHT22;5241;47.830;12.972;2023-10-08T07:47:35;16.40;99.90
10390;DHT22;5241;47.830;12.972;2023-10-08T07:50:01;16.50;99.90
10390;DHT22;5241;47.830;12.972;2023-10-08T07:52:37;16.70;99.90
10390;DHT22;5241;47.830;12.972;2023-10-08T07:55:02;16.80;99.90
10390;DHT22;5241;47.830;12.972;2023-10-08T07:57:30;17.00;99.90
10390;DHT22;5241;47.830;12.972;2023-10-08T07:59:56;17.20;99.90
10390;DHT22;5241;47.830;12.972;2023-10-08T08:02:42;17.30;99.90
10390;DHT22;5241;47.830;12.972;2023-10-08T08:05:07;17.30;99.90
10390;DHT22;5241;47.830;12.972;2023-10-08T08:07:33;17.40;99.90
10390;DHT22;5241;47.830;12.972;2023-10-08T08:09:59;17.50;99.90
10390;DHT22;5241;47.830;12.972;2023-10-08T08:12:25;17.50;99.90
10390;DHT22;5241;47.830;12.972;2023-10-08T08:14:52;17.60;99.90
10390;DHT22;5241;47.830;12.972;2023-10-08T08:17:18;17.70;99.90
10390;DHT22;5241;47.830;12.972;2023-10-08T08:19:47;17.80;99.90
10390;DHT22;5241;47.830;12.972;2023-10-08T08:22:14;17.70;99.90
10390;DHT22;5241;47.830;12.972;2023-10-08T08:24:56;17.80;99.90
10390;DHT22;5241;47.830;12.972;2023-10-08T08:27:28;17.70;99.90
10390;DHT22;5241;47.830;12.972;2023-10-08T08:30:00;17.70;99.90
10390;DHT22;5241;47.830;12.972;2023-10-08T08:32:42;17.60;99.90
10390;DHT22;5241;47.830;12.972;2023-10-08T08:35:09;17.50;99.90
10390;DHT22;5241;47.830;12.972;2023-10-08T08:37:35;17.40;99.90
10390;DHT22;5241;47.830;12.972;2023-10-08T08:40:07;17.30;99.90
10390;DHT22;5241;47.830;12.972;2023-10-08T08:42:44;17.20;99.90
10390;DHT22;5241;47.830;12.972;2023-10-08T08:45:13;17.30;99.90
10390;DHT22;5241;47.830;12.972;2023-10-08T08:47:40;17.40;99.90
10390;DHT22;5241;47.830;12.972;2023-10-08T08:50:10;17.20;99.90
10390;DHT22;5241;47.830;12.972;2023-10-08T08:52:37;17.10;99.90
10390;DHT22;5241;47.830;12.972;2023-10-08T08:55:04;17.10;99.90
10390;DHT22;5241;47.830;12.972;2023-10-08T08:57:36;17.10;99.90
10390;DHT22;5241;47.830;12.972;2023-10-08T09:00:05;17.00;99.90
10390;DHT22;5241;47.830;12.972;2023-10-08T09:02:38;16.90;99.90
10390;DHT22;5241;47.830;12.972;2023-10-08T09:05:04;16.90;99.90
10390;DHT22;5241;47.830;12.972;2023-10-08T09:08:04;16.90;99.90
10390;DHT22;5241;47.830;12.972;2023-10-08T09:10:32;17.00;99.90
10390;DHT22;5241;47.830;12.972;2023-10-08T09:13:03;17.10;99.90
10390;DHT22;5241;47.830;12.972;2023-10-08T09:15:30;17.10;99.90
10390;DHT22;5241;47.830;12.972;2023-10-08T09:17:58;17.30;99.90
10390;DHT22;5241;47.830;12.972;2023-10-08T09:20:27;17.40;99.90
10390;DHT22;5241;47.830;12.972;2023-10-08T09:23:07;17.50;99.90
10390;DHT22;5241;47.830;12.972;2023-10-08T09:25:36;17.50;99.90
10390;DHT22;5241;47.830;12.972;2023-10-08T09:28:02;17.40;99.90
10390;DHT22;5241;47.830;12.972;2023-10-08T09:30:30;17.10;99.90
10390;DHT22;5241;47.830;12.972;2023-10-08T09:32:57;17.10;99.90
10390;DHT22;5241;47.830;12.972;2023-10-08T09:35:24;17.10;99.90
10390;DHT22;5241;47.830;12.972;2023-10-08T09:37:51;17.00;99.90
10390;DHT22;5241;47.830;12.972;2023-10-08T09:40:19;17.00;99.90
10390;DHT22;5241;47.830;12.972;2023-10-08T09:42:47;17.00;99.90
10390;DHT22;5241;47.830;12.972;2023-10-08T09:45:14;17.10;99.90
10390;DHT22;5241;47.830;12.972;2023-10-08T09:47:44;17.20;99.90
10390;DHT22;5241;47.830;12.972;2023-10-08T09:50:15;17.20;99.90
10390;DHT22;5241;47.830;12.972;2023-10-08T09:55:24;17.30;99.90
10390;DHT22;5241;47.830;12.972;2023-10-08T09:57:51;17.30;99.90
10390;DHT22;5241;47.830;12.972;2023-10-08T10:00:17;17.40;99.90
10390;DHT22;5241;47.830;12.972;2023-10-08T10:02:44;17.40;99.90
10390;DHT22;5241;47.830;12.972;2023-10-08T10:05:19;17.40;99.90
10390;DHT22;5241;47.830;12.972;2023-10-08T10:07:50;17.40;99.90
10390;DHT22;5241;47.830;12.972;2023-10-08T10:10:31;17.40;99.90
10390;DHT22;5241;47.830;12.972;2023-10-08T10:13:04;17.40;99.90
10390;DHT22;5241;47.830;12.972;2023-10-08T10:15:34;17.30;99.90
10390;DHT22;5241;47.830;12.972;2023-10-08T10:20:46;17.40;99.90
10390;DHT22;5241;47.830;12.972;2023-10-08T10:26:05;17.50;99.90
10390;DHT22;5241;47.830;12.972;2023-10-08T10:28:35;17.80;99.90
10390;DHT22;5241;47.830;12.972;2023-10-08T10:31:03;18.00;99.90
10390;DHT22;5241;47.830;12.972;2023-10-08T10:33:32;18.30;99.90
10390;DHT22;5241;47.830;12.972;2023-10-08T10:36:00;18.40;99.90
10390;DHT22;5241;47.830;12.972;2023-10-08T10:38:26;18.50;99.90
10390;DHT22;5241;47.830;12.972;2023-10-08T10:40:53;18.50;99.90
10390;DHT22;5241;47.830;12.972;2023-10-08T10:43:26;18.40;99.90
10390;DHT22;5241;47.830;12.972;2023-10-08T10:46:02;18.40;99.90
10390;DHT22;5241;47.830;12.972;2023-10-08T10:48:46;18.30;99.90
10390;DHT22;5241;47.830;12.972;2023-10-08T10:51:30;18.30;99.90
10390;DHT22;5241;47.830;12.972;2023-10-08T10:53:57;18.40;99.90
10390;DHT22;5241;47.830;12.972;2023-10-08T10:56:26;18.30;99.90
10390;DHT22;5241;47.830;12.972;2023-10-08T10:59:01;18.40;99.90
10390;DHT22;5241;47.830;12.972;2023-10-08T11:01:40;18.50;99.90
10390;DHT22;5241;47.830;12.972;2023-10-08T11:04:14;18.40;99.90
10390;DHT22;5241;47.830;12.972;2023-10-08T11:06:44;18.30;99.90
10390;DHT22;5241;47.830;12.972;2023-10-08T11:09:10;18.20;99.90
10390;DHT22;5241;47.830;12.972;2023-10-08T11:11:44;18.10;99.90
10390;DHT22;5241;47.830;12.972;2023-10-08T11:14:12;17.90;99.90
10390;DHT22;5241;47.830;12.972;2023-10-08T11:16:44;17.80;99.90
10390;DHT22;5241;47.830;12.972;2023-10-08T11:19:11;17.70;99.90
10390;DHT22;5241;47.830;12.972;2023-10-08T11:21:50;17.70;99.90
10390;DHT22;5241;47.830;12.972;2023-10-08T11:24:30;17.70;99.90
10390;DHT22;5241;47.830;12.972;2023-10-08T11:27:01;17.60;99.90
10390;DHT22;5241;47.830;12.972;2023-10-08T11:29:48;17.80;99.90
10390;DHT22;5241;47.830;12.972;2023-10-08T11:32:22;17.90;99.90
10390;DHT22;5241;47.830;12.972;2023-10-08T11:34:55;17.90;99.90
10390;DHT22;5241;47.830;12.972;2023-10-08T11:37:28;17.80;99.90
10390;DHT22;5241;47.830;12.972;2023-10-08T11:39:54;18.00;99.90
10390;DHT22;5241;47.830;12.972;2023-10-08T11:42:24;18.00;99.90
10390;DHT22;5241;47.830;12.972;2023-10-08T11:44:58;18.00;99.90
10390;DHT22;5241;47.830;12.972;2023-10-08T11:47:27;18.00;99.90
10390;DHT22;5241;47.830;12.972;2023-10-08T11:50:01;18.00;99.90
10390;DHT22;5241;47.830;12.972;2023-10-08T11:52:38;17.90;99.90
10390;DHT22;5241;47.830;12.972;2023-10-08T11:55:10;17.90;99.90
10390;DHT22;5241;47.830;12.972;2023-10-08T11:57:47;17.90;99.90
10390;DHT22;5241;47.830;12.972;2023-10-08T12:00:15;17.80;99.90
10390;DHT22;5241;47.830;12.972;2023-10-08T12:02:51;17.70;99.90
10390;DHT22;5241;47.830;12.972;2023-10-08T12:05:20;17.70;99.90
10390;DHT22;5241;47.830;12.972;2023-10-08T12:07:49;17.70;99.90
10390;DHT22;5241;47.830;12.972;2023-10-08T12:10:16;17.80;99.90
10390;DHT22;5241;47.830;12.972;2023-10-08T12:15:20;17.80;99.90
10390;DHT22;5241;47.830;12.972;2023-10-08T12:17:48;17.80;99.90
10390;DHT22;5241;47.830;12.972;2023-10-08T12:20:37;17.70;99.90
10390;DHT22;5241;47.830;12.972;2023-10-08T12:23:07;18.00;99.90
10390;DHT22;5241;47.830;12.972;2023-10-08T12:25:36;17.90;99.90
10390;DHT22;5241;47.830;12.972;2023-10-08T12:28:03;18.00;99.90
10390;DHT22;5241;47.830;12.972;2023-10-08T12:30:33;18.00;99.90
10390;DHT22;5241;47.830;12.972;2023-10-08T12:33:07;18.10;99.90
10390;DHT22;5241;47.830;12.972;2023-10-08T12:35:35;17.90;99.90
10390;DHT22;5241;47.830;12.972;2023-10-08T12:38:02;17.70;99.90
10390;DHT22;5241;47.830;12.972;2023-10-08T12:40:28;17.60;99.90
10390;DHT22;5241;47.830;12.972;2023-10-08T12:43:08;17.60;99.90
10390;DHT22;5241;47.830;12.972;2023-10-08T12:45:33;17.60;99.90
10390;DHT22;5241;47.830;12.972;2023-10-08T12:47:59;17.70;99.90
10390;DHT22;5241;47.830;12.972;2023-10-08T12:50:24;17.60;99.90
10390;DHT22;5241;47.830;12.972;2023-10-08T12:53:10;17.80;99.90
10390;DHT22;5241;47.830;12.972;2023-10-08T12:55:40;17.80;99.90
10390;DHT22;5241;47.830;12.972;2023-10-08T12:58:06;17.80;99.90
10390;DHT22;5241;47.830;12.972;2023-10-08T13:00:39;17.70;99.90
10390;DHT22;5241;47.830;12.972;2023-10-08T13:03:06;17.70;99.90
10390;DHT22;5241;47.830;12.972;2023-10-08T13:05:41;17.70;99.90
10390;DHT22;5241;47.830;12.972;2023-10-08T13:08:10;17.80;99.90
10390;DHT22;5241;47.830;12.972;2023-10-08T13:10:36;17.70;99.90
10390;DHT22;5241;47.830;12.972;2023-10-08T13:13:06;18.10;99.90
10390;DHT22;5241;47.830;12.972;2023-10-08T13:15:32;18.10;99.90
10390;DHT22;5241;47.830;12.972;2023-10-08T13:18:01;18.00;99.90
10390;DHT22;5241;47.830;12.972;2023-10-08T13:20:28;17.80;99.90
10390;DHT22;5241;47.830;12.972;2023-10-08T13:22:59;17.60;99.90
10390;DHT22;5241;47.830;12.972;2023-10-08T13:25:25;17.60;99.90
10390;DHT22;5241;47.830;12.972;2023-10-08T13:27:51;17.60;99.90
10390;DHT22;5241;47.830;12.972;2023-10-08T13:30:17;17.60;99.90
10390;DHT22;5241;47.830;12.972;2023-10-08T13:32:43;17.40;99.90
10390;DHT22;5241;47.830;12.972;2023-10-08T13:35:08;17.40;99.90
10390;DHT22;5241;47.830;12.972;2023-10-08T13:37:36;17.40;99.90
10390;DHT22;5241;47.830;12.972;2023-10-08T13:40:03;17.40;99.90
10390;DHT22;5241;47.830;12.972;2023-10-08T13:42:29;17.30;99.90
10390;DHT22;5241;47.830;12.972;2023-10-08T13:44:55;17.20;99.90
10390;DHT22;5241;47.830;12.972;2023-10-08T13:47:25;17.10;99.90
10390;DHT22;5241;47.830;12.972;2023-10-08T13:49:54;17.10;99.90
10390;DHT22;5241;47.830;12.972;2023-10-08T13:52:20;17.00;99.90
10390;DHT22;5241;47.830;12.972;2023-10-08T13:54:46;17.00;99.90
10390;DHT22;5241;47.830;12.972;2023-10-08T13:57:19;17.00;99.90
10390;DHT22;5241;47.830;12.972;2023-10-08T13:59:45;17.10;99.90
10390;DHT22;5241;47.830;12.972;2023-10-08T14:02:12;17.10;99.90
10390;DHT22;5241;47.830;12.972;2023-10-08T14:04:42;17.00;99.90
10390;DHT22;5241;47.830;12.972;2023-10-08T14:07:12;17.10;99.90
10390;DHT22;5241;47.830;12.972;2023-10-08T14:09:42;17.00;99.90
10390;DHT22;5241;47.830;12.972;2023-10-08T14:12:10;16.90;99.90
10390;DHT22;5241;47.830;12.972;2023-10-08T14:14:36;17.00;99.90
10390;DHT22;5241;47.830;12.972;2023-10-08T14:17:07;17.10;99.90
10390;DHT22;5241;47.830;12.972;2023-10-08T14:19:35;17.00;99.90
10390;DHT22;5241;47.830;12.972;2023-10-08T14:22:25;17.00;99.90
10390;DHT22;5241;47.830;12.972;2023-10-08T14:24:52;16.80;99.90
10390;DHT22;5241;47.830;12.972;2023-10-08T14:27:27;16.70;99.90
10390;DHT22;5241;47.830;12.972;2023-10-08T14:30:09;16.60;99.90
10390;DHT22;5241;47.830;12.972;2023-10-08T14:32:43;16.60;99.90
10390;DHT22;5241;47.830;12.972;2023-10-08T14:35:14;16.60;99.90
10390;DHT22;5241;47.830;12.972;2023-10-08T14:38:00;16.60;99.90
10390;DHT22;5241;47.830;12.972;2023-10-08T14:40:43;16.60;99.90
10390;DHT22;5241;47.830;12.972;2023-10-08T14:43:27;16.60;99.90
10390;DHT22;5241;47.830;12.972;2023-10-08T14:45:56;16.60;99.90
10390;DHT22;5241;47.830;12.972;2023-10-08T14:48:23;16.60;99.90
10390;DHT22;5241;47.830;12.972;2023-10-08T14:50:49;16.50;99.90
10390;DHT22;5241;47.830;12.972;2023-10-08T14:53:14;16.50;99.90
10390;DHT22;5241;47.830;12.972;2023-10-08T14:55:40;16.50;99.90
10390;DHT22;5241;47.830;12.972;2023-10-08T14:58:07;16.40;99.90
10390;DHT22;5241;47.830;12.972;2023-10-08T15:00:37;16.40;99.90
10390;DHT22;5241;47.830;12.972;2023-10-08T15:03:04;16.50;99.90
10390;DHT22;5241;47.830;12.972;2023-10-08T15:05:30;16.50;99.90
10390;DHT22;5241;47.830;12.972;2023-10-08T15:07:56;16.40;99.90
10390;DHT22;5241;47.830;12.972;2023-10-08T15:10:22;16.40;99.90
10390;DHT22;5241;47.830;12.972;2023-10-08T15:12:48;16.40;99.90
10390;DHT22;5241;47.830;12.972;2023-10-08T15:15:15;16.40;99.90
10390;DHT22;5241;47.830;12.972;2023-10-08T15:17:45;16.30;99.90
10390;DHT22;5241;47.830;12.972;2023-10-08T15:20:12;16.30;99.90
10390;DHT22;5241;47.830;12.972;2023-10-08T15:22:41;16.20;99.90
10390;DHT22;5241;47.830;12.972;2023-10-08T15:25:09;16.20;99.90
10390;DHT22;5241;47.830;12.972;2023-10-08T15:27:40;16.20;99.90
10390;DHT22;5241;47.830;12.972;2023-10-08T15:30:10;16.10;99.90
10390;DHT22;5241;47.830;12.972;2023-10-08T15:32:45;16.10;99.90
10390;DHT22;5241;47.830;12.972;2023-10-08T15:35:12;16.10;99.90
10390;DHT22;5241;47.830;12.972;2023-10-08T15:37:40;16.00;99.90
10390;DHT22;5241;47.830;12.972;2023-10-08T15:40:07;16.00;99.90
10390;DHT22;5241;47.830;12.972;2023-10-08T15:42:33;16.00;99.90
10390;DHT22;5241;47.830;12.972;2023-10-08T15:45:01;16.10;99.90
10390;DHT22;5241;47.830;12.972;2023-10-08T15:47:30;16.00;99.90
10390;DHT22;5241;47.830;12.972;2023-10-08T15:49:57;15.90;99.90
10390;DHT22;5241;47.830;12.972;2023-10-08T15:52:26;15.90;99.90
10390;DHT22;5241;47.830;12.972;2023-10-08T15:54:52;15.90;99.90
10390;DHT22;5241;47.830;12.972;2023-10-08T15:57:18;15.80;99.90
10390;DHT22;5241;47.830;12.972;2023-10-08T15:59:43;15.80;99.90
10390;DHT22;5241;47.830;12.972;2023-10-08T16:02:09;15.70;99.90
10390;DHT22;5241;47.830;12.972;2023-10-08T16:04:35;15.70;99.90
10390;DHT22;5241;47.830;12.972;2023-10-08T16:07:00;15.60;99.90